createdAt,value
2022-12-18T00:00:48.013Z,0.00
2022-12-18T00:01:48.279Z,0.00
2022-12-18T00:02:48.614Z,0.00
2022-12-18T00:03:48.796Z,0.00
2022-12-18T00:04:49.001Z,0.00
2022-12-18T00:05:49.222Z,0.00
2022-12-18T00:06:49.472Z,0.00
2022-12-18T00:07:49.683Z,0.00
2022-12-18T00:08:49.942Z,0.00
2022-12-18T00:09:50.163Z,0.00
2022-12-18T00:10:50.431Z,0.00
2022-12-18T00:11:50.664Z,0.00
2022-12-18T00:12:50.914Z,0.00
2022-12-18T00:13:51.151Z,0.00
2022-12-18T00:14:51.394Z,0.00
2022-12-18T00:15:51.648Z,0.00
2022-12-18T00:16:51.915Z,0.00
2022-12-18T00:17:52.136Z,0.00
2022-12-18T00:18:52.387Z,0.00
2022-12-18T00:19:52.616Z,0.00
2022-12-18T00:20:52.866Z,0.00
2022-12-18T00:21:53.087Z,0.00
2022-12-18T00:22:53.356Z,0.00
2022-12-18T00:23:53.570Z,0.00
2022-12-18T00:24:53.797Z,0.00
2022-12-18T00:25:54.027Z,0.00
2022-12-18T00:26:54.291Z,0.00
2022-12-18T00:27:54.520Z,0.00
2022-12-18T00:28:54.759Z,0.00
2022-12-18T00:29:54.979Z,0.00
2022-12-18T00:30:55.229Z,0.00
2022-12-18T00:31:55.554Z,0.00
2022-12-18T00:32:55.722Z,0.00
2022-12-18T00:33:55.921Z,0.00
2022-12-18T00:34:56.169Z,0.00
2022-12-18T00:35:56.382Z,0.00
2022-12-18T00:36:56.629Z,0.00
2022-12-18T00:37:56.851Z,0.00
2022-12-18T00:38:57.089Z,0.00
2022-12-18T00:39:57.313Z,0.00
2022-12-18T00:40:57.565Z,0.00
2022-12-18T00:41:57.795Z,0.00
2022-12-18T00:42:58.042Z,0.00
2022-12-18T00:43:58.265Z,0.00
2022-12-18T00:44:58.510Z,0.00
2022-12-18T00:45:58.771Z,0.00
2022-12-18T00:46:58.976Z,0.00
2022-12-18T00:47:59.199Z,0.00
2022-12-18T00:48:59.432Z,0.00
2022-12-18T00:49:59.665Z,0.00
2022-12-18T00:50:59.898Z,0.00
2022-12-18T00:52:00.128Z,0.00
2022-12-18T00:53:00.373Z,0.00
2022-12-18T00:54:00.586Z,0.00
2022-12-18T00:55:05.990Z,0.00
2022-12-18T00:56:02.037Z,0.00
2022-12-18T00:57:01.225Z,0.00
2022-12-18T00:58:01.437Z,0.00
2022-12-18T00:59:01.677Z,0.00
2022-12-18T01:00:01.898Z,0.00
2022-12-18T01:01:02.276Z,0.00
2022-12-18T01:02:02.411Z,0.00
2022-12-18T01:03:02.541Z,0.00
2022-12-18T01:04:02.750Z,0.00
2022-12-18T01:05:02.979Z,0.00
2022-12-18T01:06:03.227Z,0.00
2022-12-18T01:07:03.448Z,0.00
2022-12-18T01:08:03.696Z,0.00
2022-12-18T01:09:03.900Z,0.00
2022-12-18T01:10:04.141Z,0.00
2022-12-18T01:11:04.359Z,0.00
2022-12-18T01:12:04.591Z,0.00
2022-12-18T01:13:04.821Z,0.00
2022-12-18T01:14:05.063Z,0.00
2022-12-18T01:15:05.291Z,0.00
2022-12-18T01:16:05.539Z,0.00
2022-12-18T01:17:05.743Z,0.00
2022-12-18T01:18:05.985Z,0.00
2022-12-18T01:19:06.220Z,0.00
2022-12-18T01:20:06.452Z,0.00
2022-12-18T01:21:06.675Z,0.00
2022-12-18T01:22:06.933Z,0.00
2022-12-18T01:23:07.164Z,0.00
2022-12-18T01:24:07.418Z,0.00
2022-12-18T01:25:07.643Z,0.00
2022-12-18T01:26:07.884Z,0.00
2022-12-18T01:27:08.106Z,0.00
2022-12-18T01:28:08.357Z,0.00
2022-12-18T01:29:08.585Z,0.00
2022-12-18T01:30:08.845Z,0.00
2022-12-18T01:31:09.117Z,0.00
2022-12-18T01:32:09.383Z,0.00
2022-12-18T01:33:09.477Z,0.00
2022-12-18T01:34:09.719Z,0.00
2022-12-18T01:35:09.948Z,0.00
2022-12-18T01:36:10.179Z,0.00
2022-12-18T01:37:10.410Z,0.00
2022-12-18T01:38:10.630Z,0.00
2022-12-18T01:39:10.859Z,0.00
2022-12-18T01:40:11.100Z,0.00
2022-12-18T01:41:11.330Z,0.00
2022-12-18T01:42:11.562Z,0.00
2022-12-18T01:43:11.836Z,0.00
2022-12-18T01:44:12.055Z,0.00
2022-12-18T01:45:12.282Z,0.00
2022-12-18T01:46:12.545Z,0.00
2022-12-18T01:47:12.662Z,0.00
2022-12-18T01:48:12.911Z,0.00
2022-12-18T01:49:13.133Z,0.00
2022-12-18T01:50:13.420Z,0.00
2022-12-18T01:51:13.652Z,0.00
2022-12-18T01:52:13.935Z,0.00
2022-12-18T01:53:14.123Z,0.00
2022-12-18T01:54:14.364Z,0.00
2022-12-18T01:55:14.585Z,0.00
2022-12-18T01:56:14.824Z,0.00
2022-12-18T01:57:15.046Z,0.00
2022-12-18T01:58:15.315Z,0.00
2022-12-18T01:59:15.580Z,0.00
2022-12-18T02:00:15.826Z,0.00
2022-12-18T02:01:16.207Z,0.00
2022-12-18T02:02:16.436Z,0.00
2022-12-18T02:03:16.563Z,0.00
2022-12-18T02:04:16.827Z,0.00
2022-12-18T02:05:17.054Z,0.00
2022-12-18T02:06:17.310Z,0.00
2022-12-18T02:07:17.528Z,0.00
2022-12-18T02:08:17.770Z,0.00
2022-12-18T02:09:17.998Z,0.00
2022-12-18T02:10:18.268Z,0.00
2022-12-18T02:11:18.520Z,0.00
2022-12-18T02:12:18.768Z,0.00
2022-12-18T02:13:18.993Z,0.00
2022-12-18T02:14:19.238Z,0.00
2022-12-18T02:15:19.460Z,0.00
2022-12-18T02:16:19.750Z,0.00
2022-12-18T02:17:19.821Z,0.00
2022-12-18T02:18:20.061Z,0.00
2022-12-18T02:19:20.291Z,0.00
2022-12-18T02:20:20.542Z,0.00
2022-12-18T02:21:20.773Z,0.00
2022-12-18T02:22:21.014Z,0.00
2022-12-18T02:23:21.242Z,0.00
2022-12-18T02:24:21.502Z,0.00
2022-12-18T02:25:21.724Z,0.00
2022-12-18T02:26:21.972Z,0.00
2022-12-18T02:27:22.185Z,0.00
2022-12-18T02:28:22.413Z,0.00
2022-12-18T02:29:22.645Z,0.00
2022-12-18T02:30:22.968Z,0.00
2022-12-18T02:31:23.084Z,0.00
2022-12-18T02:32:23.333Z,0.00
2022-12-18T02:33:23.556Z,0.00
2022-12-18T02:34:23.806Z,0.00
2022-12-18T02:35:24.037Z,0.00
2022-12-18T02:36:24.306Z,0.00
2022-12-18T02:37:24.507Z,0.00
2022-12-18T02:38:24.756Z,0.00
2022-12-18T02:39:25.018Z,0.00
2022-12-18T02:40:25.268Z,0.00
2022-12-18T02:41:25.498Z,0.00
2022-12-18T02:42:25.747Z,0.00
2022-12-18T02:43:25.978Z,0.00
2022-12-18T02:44:26.210Z,0.00
2022-12-18T02:45:26.439Z,0.00
2022-12-18T02:46:26.689Z,0.00
2022-12-18T02:47:26.919Z,0.00
2022-12-18T02:48:27.170Z,0.00
2022-12-18T02:49:27.401Z,0.00
2022-12-18T02:50:27.641Z,0.00
2022-12-18T02:51:27.879Z,0.00
2022-12-18T02:52:28.101Z,0.00
2022-12-18T02:53:28.322Z,0.00
2022-12-18T02:54:28.551Z,0.00
2022-12-18T02:55:28.774Z,0.00
2022-12-18T02:56:29.012Z,0.00
2022-12-18T02:57:29.232Z,0.00
2022-12-18T02:58:29.474Z,0.00
2022-12-18T02:59:29.703Z,0.00
2022-12-18T03:00:29.937Z,0.00
2022-12-18T03:01:30.260Z,0.00
2022-12-18T03:02:30.486Z,0.00
2022-12-18T03:03:30.744Z,0.00
2022-12-18T03:04:30.835Z,0.00
2022-12-18T03:05:31.055Z,0.00
2022-12-18T03:06:31.314Z,0.00
2022-12-18T03:07:31.544Z,0.00
2022-12-18T03:08:31.785Z,0.00
2022-12-18T03:09:32.016Z,0.00
2022-12-18T03:10:32.256Z,0.00
2022-12-18T03:11:32.487Z,0.00
2022-12-18T03:12:32.771Z,0.00
2022-12-18T03:13:32.959Z,0.00
2022-12-18T03:14:33.206Z,0.00
2022-12-18T03:15:33.423Z,0.00
2022-12-18T03:16:33.734Z,0.00
2022-12-18T03:17:33.826Z,0.00
2022-12-18T03:18:34.069Z,0.00
2022-12-18T03:19:34.300Z,0.00
2022-12-18T03:20:34.573Z,0.00
2022-12-18T03:21:34.789Z,0.00
2022-12-18T03:22:35.037Z,0.00
2022-12-18T03:23:35.250Z,0.00
2022-12-18T03:24:35.501Z,0.00
2022-12-18T03:25:35.739Z,0.00
2022-12-18T03:26:35.992Z,0.00
2022-12-18T03:27:36.221Z,0.00
2022-12-18T03:28:36.473Z,0.00
2022-12-18T03:29:36.699Z,0.00
2022-12-18T03:30:36.964Z,0.00
2022-12-18T03:31:37.081Z,0.00
2022-12-18T03:32:37.343Z,0.00
2022-12-18T03:33:38.050Z,0.00
2022-12-18T03:34:37.840Z,0.00
2022-12-18T03:35:38.071Z,0.00
2022-12-18T03:36:38.334Z,0.00
2022-12-18T03:37:38.555Z,0.00
2022-12-18T03:38:38.835Z,0.00
2022-12-18T03:39:39.055Z,0.00
2022-12-18T03:40:39.295Z,0.00
2022-12-18T03:41:39.515Z,0.00
2022-12-18T03:42:39.760Z,0.00
2022-12-18T03:43:40.279Z,0.00
2022-12-18T03:44:40.226Z,0.00
2022-12-18T03:45:40.489Z,0.00
2022-12-18T03:46:40.628Z,0.00
2022-12-18T03:47:40.855Z,0.00
2022-12-18T03:48:41.097Z,0.00
2022-12-18T03:49:41.320Z,0.00
2022-12-18T03:50:41.558Z,0.00
2022-12-18T03:51:41.797Z,0.00
2022-12-18T03:52:42.020Z,0.00
2022-12-18T03:53:42.828Z,0.00
2022-12-18T03:54:42.521Z,0.00
2022-12-18T03:55:42.730Z,0.00
2022-12-18T03:56:42.970Z,0.00
2022-12-18T03:57:43.190Z,0.00
2022-12-18T03:58:43.431Z,0.00
2022-12-18T03:59:43.593Z,0.00
2022-12-18T04:00:43.831Z,0.00
2022-12-18T04:01:44.245Z,0.00
2022-12-18T04:02:44.416Z,0.00
2022-12-18T04:03:44.933Z,0.00
2022-12-18T04:04:44.835Z,0.00
2022-12-18T04:05:45.044Z,0.00
2022-12-18T04:06:45.283Z,0.00
2022-12-18T04:07:45.512Z,0.00
2022-12-18T04:08:45.752Z,0.00
2022-12-18T04:09:45.984Z,0.00
2022-12-18T04:10:46.243Z,0.00
2022-12-18T04:11:46.475Z,0.00
2022-12-18T04:12:46.715Z,0.00
2022-12-18T04:13:46.936Z,0.00
2022-12-18T04:14:47.185Z,0.00
2022-12-18T04:15:47.478Z,0.00
2022-12-18T04:16:47.696Z,0.00
2022-12-18T04:17:47.925Z,0.00
2022-12-18T04:18:48.176Z,0.00
2022-12-18T04:19:48.398Z,0.00
2022-12-18T04:20:48.630Z,0.00
2022-12-18T04:21:48.861Z,0.00
2022-12-18T04:22:49.098Z,0.00
2022-12-18T04:23:49.349Z,0.00
2022-12-18T04:24:49.589Z,0.00
2022-12-18T04:25:49.800Z,0.00
2022-12-18T04:26:50.051Z,0.00
2022-12-18T04:27:50.259Z,0.00
2022-12-18T04:28:50.508Z,0.00
2022-12-18T04:29:50.730Z,0.00
2022-12-18T04:30:51.033Z,0.00
2022-12-18T04:31:51.161Z,0.00
2022-12-18T04:32:52.464Z,0.00
2022-12-18T04:33:51.573Z,0.00
2022-12-18T04:34:51.803Z,0.00
2022-12-18T04:35:52.031Z,0.00
2022-12-18T04:36:52.272Z,0.00
2022-12-18T04:37:52.501Z,0.00
2022-12-18T04:38:52.742Z,0.00
2022-12-18T04:39:52.963Z,0.00
2022-12-18T04:40:53.212Z,0.00
2022-12-18T04:41:53.474Z,0.00
2022-12-18T04:42:53.727Z,0.00
2022-12-18T04:43:53.924Z,0.00
2022-12-18T04:44:54.175Z,0.00
2022-12-18T04:45:54.395Z,0.00
2022-12-18T04:46:54.696Z,0.00
2022-12-18T04:47:54.763Z,0.00
2022-12-18T04:48:55.006Z,0.00
2022-12-18T04:49:55.225Z,0.00
2022-12-18T04:50:55.465Z,0.00
2022-12-18T04:51:55.693Z,0.00
2022-12-18T04:52:55.927Z,0.00
2022-12-18T04:53:56.147Z,0.00
2022-12-18T04:54:56.384Z,0.00
2022-12-18T04:55:56.597Z,0.00
2022-12-18T04:56:56.839Z,0.00
2022-12-18T04:57:57.070Z,0.00
2022-12-18T04:58:57.298Z,0.00
2022-12-18T04:59:57.528Z,0.00
2022-12-18T05:00:57.761Z,0.00
2022-12-18T05:01:58.107Z,0.00
2022-12-18T05:02:58.386Z,0.00
2022-12-18T05:03:58.403Z,0.00
2022-12-18T05:04:58.670Z,0.00
2022-12-18T05:05:58.882Z,0.00
2022-12-18T05:06:59.129Z,0.00
2022-12-18T05:07:59.333Z,0.00
2022-12-18T05:08:59.572Z,0.00
2022-12-18T05:09:59.792Z,0.00
2022-12-18T05:11:00.044Z,0.00
2022-12-18T05:12:00.273Z,0.00
2022-12-18T05:13:01.262Z,0.00
2022-12-18T05:14:00.746Z,0.00
2022-12-18T05:15:00.992Z,0.00
2022-12-18T05:16:01.247Z,0.00
2022-12-18T05:17:01.548Z,0.00
2022-12-18T05:18:01.617Z,0.00
2022-12-18T05:19:01.865Z,0.00
2022-12-18T05:20:02.114Z,0.00
2022-12-18T05:21:02.323Z,0.00
2022-12-18T05:22:02.575Z,0.00
2022-12-18T05:23:02.795Z,0.00
2022-12-18T05:24:03.026Z,0.00
2022-12-18T05:25:03.238Z,0.00
2022-12-18T05:26:03.478Z,0.00
2022-12-18T05:27:03.720Z,0.00
2022-12-18T05:28:03.957Z,0.00
2022-12-18T05:29:04.168Z,0.00
2022-12-18T05:30:04.427Z,0.00
2022-12-18T05:31:04.687Z,0.00
2022-12-18T05:32:04.911Z,4.00
2022-12-18T05:33:05.127Z,0.00
2022-12-18T05:34:05.370Z,0.00
2022-12-18T05:35:05.577Z,0.00
2022-12-18T05:36:05.819Z,0.00
2022-12-18T05:37:06.041Z,0.00
2022-12-18T05:38:06.280Z,0.00
2022-12-18T05:39:06.497Z,0.00
2022-12-18T05:40:06.722Z,0.00
2022-12-18T05:41:06.939Z,0.00
2022-12-18T05:42:07.187Z,0.00
2022-12-18T05:43:07.399Z,0.00
2022-12-18T05:44:07.613Z,0.00
2022-12-18T05:45:07.837Z,0.00
2022-12-18T05:46:08.164Z,0.00
2022-12-18T05:47:08.253Z,0.00
2022-12-18T05:48:08.494Z,0.00
2022-12-18T05:49:08.702Z,0.00
2022-12-18T05:50:08.924Z,0.00
2022-12-18T05:51:09.133Z,0.00
2022-12-18T05:52:09.374Z,0.00
2022-12-18T05:53:09.595Z,0.00
2022-12-18T05:54:09.834Z,0.00
2022-12-18T05:55:09.956Z,0.00
2022-12-18T05:56:10.197Z,0.00
2022-12-18T05:57:10.426Z,0.00
2022-12-18T05:58:10.667Z,0.00
2022-12-18T05:59:10.877Z,0.00
2022-12-18T06:00:11.096Z,0.00
2022-12-18T06:01:11.327Z,0.00
2022-12-18T06:02:11.669Z,0.00
2022-12-18T06:03:11.906Z,0.00
2022-12-18T06:04:12.089Z,0.00
2022-12-18T06:05:12.288Z,0.00
2022-12-18T06:06:12.528Z,0.00
2022-12-18T06:07:13.838Z,0.00
2022-12-18T06:08:12.857Z,0.00
2022-12-18T06:09:12.959Z,0.00
2022-12-18T06:10:13.199Z,0.00
2022-12-18T06:11:13.430Z,0.00
2022-12-18T06:12:13.651Z,0.00
2022-12-18T06:13:13.928Z,0.00
2022-12-18T06:14:14.152Z,0.00
2022-12-18T06:15:14.383Z,0.00
2022-12-18T06:16:14.727Z,0.00
2022-12-18T06:17:14.862Z,0.00
2022-12-18T06:18:15.142Z,0.00
2022-12-18T06:19:15.342Z,0.00
2022-12-18T06:20:15.523Z,0.00
2022-12-18T06:21:15.803Z,0.00
2022-12-18T06:22:16.024Z,0.00
2022-12-18T06:23:16.275Z,0.00
2022-12-18T06:24:16.484Z,0.00
2022-12-18T06:25:16.704Z,0.00
2022-12-18T06:26:16.934Z,0.00
2022-12-18T06:27:17.176Z,0.00
2022-12-18T06:28:17.395Z,0.00
2022-12-18T06:29:17.643Z,0.00
2022-12-18T06:30:17.865Z,0.00
2022-12-18T06:31:18.151Z,0.00
2022-12-18T06:32:18.339Z,4.00
2022-12-18T06:33:18.587Z,4.00
2022-12-18T06:34:18.816Z,4.00
2022-12-18T06:35:19.056Z,4.00
2022-12-18T06:36:19.198Z,0.00
2022-12-18T06:37:19.437Z,0.00
2022-12-18T06:38:19.708Z,0.00
2022-12-18T06:39:19.899Z,4.00
2022-12-18T06:40:20.117Z,4.00
2022-12-18T06:41:20.342Z,4.00
2022-12-18T06:42:20.561Z,4.00
2022-12-18T06:43:20.810Z,4.00
2022-12-18T06:44:21.039Z,4.00
2022-12-18T06:45:21.280Z,4.00
2022-12-18T06:46:21.551Z,8.00
2022-12-18T06:47:21.762Z,4.00
2022-12-18T06:48:21.994Z,8.00
2022-12-18T06:49:25.042Z,8.00
2022-12-18T06:50:23.433Z,8.00
2022-12-18T06:51:22.619Z,8.00
2022-12-18T06:52:22.823Z,12.00
2022-12-18T06:53:23.042Z,8.00
2022-12-18T06:54:23.262Z,12.00
2022-12-18T06:55:23.423Z,12.00
2022-12-18T06:56:23.667Z,12.00
2022-12-18T06:57:23.914Z,12.00
2022-12-18T06:58:24.156Z,16.00
2022-12-18T06:59:24.445Z,12.00
2022-12-18T07:00:24.635Z,16.00
2022-12-18T07:01:24.973Z,16.00
2022-12-18T07:02:25.215Z,20.00
2022-12-18T07:03:25.378Z,20.00
2022-12-18T07:04:25.624Z,20.00
2022-12-18T07:05:25.905Z,24.00
2022-12-18T07:06:26.149Z,24.00
2022-12-18T07:07:26.407Z,28.00
2022-12-18T07:08:26.637Z,28.00
2022-12-18T07:09:26.898Z,28.00
2022-12-18T07:10:27.119Z,32.00
2022-12-18T07:11:27.378Z,28.00
2022-12-18T07:12:27.610Z,32.00
2022-12-18T07:13:27.874Z,36.00
2022-12-18T07:14:28.101Z,32.00
2022-12-18T07:15:28.391Z,40.00
2022-12-18T07:16:28.674Z,40.00
2022-12-18T07:17:28.921Z,40.00
2022-12-18T07:18:29.160Z,44.00
2022-12-18T07:19:29.401Z,44.00
2022-12-18T07:20:29.612Z,44.00
2022-12-18T07:21:29.733Z,44.00
2022-12-18T07:22:29.970Z,48.00
2022-12-18T07:23:30.233Z,56.00
2022-12-18T07:24:30.462Z,60.00
2022-12-18T07:25:30.724Z,76.00
2022-12-18T07:26:30.953Z,84.00
2022-12-18T07:27:31.216Z,88.00
2022-12-18T07:28:31.583Z,84.00
2022-12-18T07:29:31.663Z,76.00
2022-12-18T07:30:31.894Z,88.00
2022-12-18T07:31:32.185Z,72.00
2022-12-18T07:32:32.284Z,64.00
2022-12-18T07:33:32.546Z,68.00
2022-12-18T07:34:32.673Z,56.00
2022-12-18T07:35:32.925Z,60.00
2022-12-18T07:36:33.155Z,72.00
2022-12-18T07:37:33.396Z,80.00
2022-12-18T07:38:33.637Z,68.00
2022-12-18T07:39:33.877Z,80.00
2022-12-18T07:40:34.130Z,92.00
2022-12-18T07:41:34.367Z,96.00
2022-12-18T07:42:34.612Z,104.00
2022-12-18T07:43:34.877Z,100.00
2022-12-18T07:44:35.000Z,108.00
2022-12-18T07:45:35.324Z,120.00
2022-12-18T07:46:35.452Z,124.00
2022-12-18T07:47:35.719Z,136.00
2022-12-18T07:48:35.859Z,156.00
2022-12-18T07:49:37.122Z,156.00
2022-12-18T07:50:36.310Z,172.00
2022-12-18T07:51:36.581Z,188.00
2022-12-18T07:52:36.832Z,192.00
2022-12-18T07:53:37.434Z,212.00
2022-12-18T07:54:37.349Z,192.00
2022-12-18T07:55:59.821Z,216.00
2022-12-18T07:56:38.862Z,204.00
2022-12-18T07:57:57.781Z,240.00
2022-12-18T07:58:39.311Z,240.00
2022-12-18T07:59:38.523Z,252.00
2022-12-18T08:00:38.783Z,220.00
2022-12-18T08:01:39.138Z,196.00
2022-12-18T08:02:39.401Z,196.00
2022-12-18T08:03:39.910Z,188.00
2022-12-18T08:04:39.755Z,184.00
2022-12-18T08:05:40.042Z,180.00
2022-12-18T08:06:43.673Z,184.00
2022-12-18T08:07:41.426Z,184.00
2022-12-18T08:08:40.635Z,192.00
2022-12-18T08:09:40.919Z,192.00
2022-12-18T08:10:41.074Z,196.00
2022-12-18T08:11:41.356Z,200.00
2022-12-18T08:12:41.501Z,200.00
2022-12-18T08:13:42.275Z,204.00
2022-12-18T08:14:42.008Z,204.00
2022-12-18T08:15:42.301Z,208.00
2022-12-18T08:16:42.472Z,208.00
2022-12-18T08:17:42.727Z,208.00
2022-12-18T08:18:42.988Z,208.00
2022-12-18T08:19:43.259Z,208.00
2022-12-18T08:20:43.399Z,208.00
2022-12-18T08:21:43.659Z,216.00
2022-12-18T08:22:43.916Z,216.00
2022-12-18T08:23:44.338Z,220.00
2022-12-18T08:24:44.350Z,220.00
2022-12-18T08:25:44.621Z,220.00
2022-12-18T08:26:55.870Z,220.00
2022-12-18T08:27:46.011Z,224.00
2022-12-18T08:28:45.199Z,224.00
2022-12-18T08:29:45.452Z,228.00
2022-12-18T08:30:45.625Z,228.00
2022-12-18T08:31:45.913Z,228.00
2022-12-18T08:32:46.143Z,228.00
2022-12-18T08:33:46.425Z,228.00
2022-12-18T08:34:46.585Z,232.00
2022-12-18T08:35:46.847Z,236.00
2022-12-18T08:36:46.991Z,236.00
2022-12-18T08:37:47.254Z,236.00
2022-12-18T08:38:47.385Z,236.00
2022-12-18T08:39:47.655Z,240.00
2022-12-18T08:40:47.785Z,244.00
2022-12-18T08:41:48.055Z,244.00
2022-12-18T08:42:48.296Z,252.00
2022-12-18T08:43:48.573Z,252.00
2022-12-18T08:44:48.817Z,256.00
2022-12-18T08:45:49.148Z,256.00
2022-12-18T08:46:49.277Z,252.00
2022-12-18T08:47:49.561Z,256.00
2022-12-18T08:48:49.708Z,256.00
2022-12-18T08:49:49.989Z,256.00
2022-12-18T08:50:50.230Z,256.00
2022-12-18T08:51:50.509Z,256.00
2022-12-18T08:52:50.748Z,260.00
2022-12-18T08:53:51.029Z,260.00
2022-12-18T08:54:51.170Z,260.00
2022-12-18T08:55:51.440Z,260.00
2022-12-18T08:56:51.691Z,260.00
2022-12-18T08:57:51.980Z,260.00
2022-12-18T08:58:52.121Z,260.00
2022-12-18T08:59:52.401Z,256.00
2022-12-18T09:00:52.593Z,256.00
2022-12-18T09:01:52.956Z,256.00
2022-12-18T09:02:53.052Z,256.00
2022-12-18T09:03:53.231Z,256.00
2022-12-18T09:04:57.329Z,260.00
2022-12-18T09:05:53.570Z,252.00
2022-12-18T09:06:53.703Z,252.00
2022-12-18T09:07:53.968Z,260.00
2022-12-18T09:08:54.113Z,256.00
2022-12-18T09:09:54.374Z,252.00
2022-12-18T09:10:54.504Z,248.00
2022-12-18T09:11:54.795Z,256.00
2022-12-18T09:12:54.926Z,248.00
2022-12-18T09:13:55.195Z,244.00
2022-12-18T09:14:55.326Z,256.00
2022-12-18T09:15:55.596Z,252.00
2022-12-18T09:16:55.919Z,260.00
2022-12-18T09:17:56.124Z,256.00
2022-12-18T09:18:56.267Z,260.00
2022-12-18T09:19:56.525Z,260.00
2022-12-18T09:20:56.658Z,260.00
2022-12-18T09:21:56.928Z,256.00
2022-12-18T09:22:57.170Z,260.00
2022-12-18T09:23:57.449Z,260.00
2022-12-18T09:24:57.588Z,260.00
2022-12-18T09:25:57.868Z,260.00
2022-12-18T09:26:58.282Z,260.00
2022-12-18T09:27:58.409Z,256.00
2022-12-18T09:28:58.659Z,260.00
2022-12-18T09:29:58.910Z,264.00
2022-12-18T09:30:59.198Z,264.00
2022-12-18T09:31:59.349Z,264.00
2022-12-18T09:32:59.642Z,264.00
2022-12-18T09:33:59.861Z,268.00
2022-12-18T09:35:00.125Z,272.00
2022-12-18T09:36:00.363Z,268.00
2022-12-18T09:37:00.644Z,264.00
2022-12-18T09:38:00.892Z,268.00
2022-12-18T09:39:06.291Z,272.00
2022-12-18T09:40:02.405Z,268.00
2022-12-18T09:41:01.623Z,272.00
2022-12-18T09:42:01.763Z,268.00
2022-12-18T09:43:02.045Z,264.00
2022-12-18T09:44:02.185Z,264.00
2022-12-18T09:45:02.509Z,264.00
2022-12-18T09:46:02.654Z,264.00
2022-12-18T09:47:02.816Z,264.00
2022-12-18T09:48:02.953Z,264.00
2022-12-18T09:49:03.186Z,268.00
2022-12-18T09:50:03.434Z,268.00
2022-12-18T09:51:03.706Z,264.00
2022-12-18T09:52:03.946Z,268.00
2022-12-18T09:53:04.286Z,260.00
2022-12-18T09:54:04.445Z,252.00
2022-12-18T09:55:04.707Z,248.00
2022-12-18T09:56:04.961Z,256.00
2022-12-18T09:57:05.238Z,256.00
2022-12-18T09:58:05.490Z,252.00
2022-12-18T09:59:05.668Z,248.00
2022-12-18T10:00:05.918Z,244.00
2022-12-18T10:01:06.201Z,248.00
2022-12-18T10:02:06.534Z,256.00
2022-12-18T10:03:06.759Z,256.00
2022-12-18T10:04:06.939Z,248.00
2022-12-18T10:05:07.101Z,236.00
2022-12-18T10:06:07.251Z,240.00
2022-12-18T10:07:09.402Z,244.00
2022-12-18T10:08:07.709Z,240.00
2022-12-18T10:09:07.982Z,236.00
2022-12-18T10:10:08.231Z,232.00
2022-12-18T10:11:08.514Z,232.00
2022-12-18T10:12:08.651Z,228.00
2022-12-18T10:13:08.923Z,224.00
2022-12-18T10:14:09.097Z,220.00
2022-12-18T10:15:09.272Z,220.00
2022-12-18T10:16:09.498Z,216.00
2022-12-18T10:17:09.764Z,216.00
2022-12-18T10:18:09.914Z,216.00
2022-12-18T10:19:10.205Z,216.00
2022-12-18T10:20:10.346Z,216.00
2022-12-18T10:21:10.615Z,212.00
2022-12-18T10:22:10.778Z,212.00
2022-12-18T10:23:10.936Z,208.00
2022-12-18T10:24:11.076Z,208.00
2022-12-18T10:25:11.347Z,208.00
2022-12-18T10:26:11.496Z,204.00
2022-12-18T10:27:11.787Z,208.00
2022-12-18T10:28:11.918Z,204.00
2022-12-18T10:29:12.189Z,204.00
2022-12-18T10:30:12.328Z,204.00
2022-12-18T10:31:12.654Z,204.00
2022-12-18T10:32:12.748Z,200.00
2022-12-18T10:33:13.019Z,204.00
2022-12-18T10:34:13.168Z,204.00
2022-12-18T10:35:13.441Z,200.00
2022-12-18T10:36:13.679Z,200.00
2022-12-18T10:37:13.949Z,204.00
2022-12-18T10:38:14.201Z,204.00
2022-12-18T10:39:14.471Z,200.00
2022-12-18T10:40:20.164Z,200.00
2022-12-18T10:41:15.970Z,200.00
2022-12-18T10:42:15.160Z,200.00
2022-12-18T10:43:15.432Z,200.00
2022-12-18T10:44:15.572Z,200.00
2022-12-18T10:45:15.851Z,200.00
2022-12-18T10:46:16.091Z,196.00
2022-12-18T10:47:16.342Z,192.00
2022-12-18T10:48:16.483Z,192.00
2022-12-18T10:49:16.763Z,196.00
2022-12-18T10:50:17.004Z,192.00
2022-12-18T10:51:17.254Z,192.00
2022-12-18T10:52:17.503Z,192.00
2022-12-18T10:53:17.785Z,188.00
2022-12-18T10:54:18.014Z,192.00
2022-12-18T10:55:18.304Z,192.00
2022-12-18T10:56:18.425Z,192.00
2022-12-18T10:57:18.687Z,188.00
2022-12-18T10:58:22.229Z,192.00
2022-12-18T10:59:20.067Z,192.00
2022-12-18T11:00:19.237Z,188.00
2022-12-18T11:01:19.602Z,188.00
2022-12-18T11:02:19.814Z,184.00
2022-12-18T11:03:19.988Z,184.00
2022-12-18T11:04:20.108Z,184.00
2022-12-18T11:05:20.387Z,184.00
2022-12-18T11:06:20.578Z,180.00
2022-12-18T11:07:20.819Z,180.00
2022-12-18T11:08:20.957Z,180.00
2022-12-18T11:09:21.229Z,176.00
2022-12-18T11:10:21.378Z,180.00
2022-12-18T11:11:21.643Z,176.00
2022-12-18T11:12:21.899Z,176.00
2022-12-18T11:13:22.180Z,176.00
2022-12-18T11:14:22.322Z,176.00
2022-12-18T11:15:22.602Z,176.00
2022-12-18T11:16:22.789Z,176.00
2022-12-18T11:17:25.921Z,172.00
2022-12-18T11:18:23.171Z,172.00
2022-12-18T11:19:23.558Z,172.00
2022-12-18T11:20:23.639Z,168.00
2022-12-18T11:21:23.892Z,168.00
2022-12-18T11:22:24.031Z,168.00
2022-12-18T11:23:24.301Z,168.00
2022-12-18T11:24:24.553Z,168.00
2022-12-18T11:25:33.479Z,168.00
2022-12-18T11:26:26.015Z,168.00
2022-12-18T11:27:25.222Z,168.00
2022-12-18T11:28:25.454Z,168.00
2022-12-18T11:29:25.732Z,168.00
2022-12-18T11:30:25.864Z,164.00
2022-12-18T11:31:26.222Z,164.00
2022-12-18T11:32:26.336Z,168.00
2022-12-18T11:33:26.609Z,168.00
2022-12-18T11:34:29.423Z,168.00
2022-12-18T11:35:27.017Z,164.00
2022-12-18T11:36:27.276Z,164.00
2022-12-18T11:37:27.557Z,164.00
2022-12-18T11:38:27.690Z,160.00
2022-12-18T11:39:27.980Z,160.00
2022-12-18T11:40:28.118Z,160.00
2022-12-18T11:41:28.390Z,160.00
2022-12-18T11:42:28.540Z,160.00
2022-12-18T11:43:28.826Z,160.00
2022-12-18T11:44:29.069Z,156.00
2022-12-18T11:45:29.354Z,156.00
2022-12-18T11:46:29.613Z,152.00
2022-12-18T11:47:29.811Z,152.00
2022-12-18T11:48:30.052Z,152.00
2022-12-18T11:49:30.340Z,148.00
2022-12-18T11:50:30.481Z,152.00
2022-12-18T11:51:30.760Z,152.00
2022-12-18T11:52:31.001Z,152.00
2022-12-18T11:53:31.263Z,152.00
2022-12-18T11:54:31.515Z,152.00
2022-12-18T11:55:31.799Z,148.00
2022-12-18T11:56:31.958Z,148.00
2022-12-18T11:57:32.222Z,148.00
2022-12-18T11:58:32.475Z,148.00
2022-12-18T11:59:32.754Z,148.00
2022-12-18T12:00:32.893Z,144.00
2022-12-18T12:01:34.785Z,144.00
2022-12-18T12:02:33.498Z,144.00
2022-12-18T12:03:33.735Z,148.00
2022-12-18T12:04:33.912Z,148.00
2022-12-18T12:05:34.069Z,148.00
2022-12-18T12:06:34.206Z,144.00
2022-12-18T12:07:34.466Z,144.00
2022-12-18T12:08:34.723Z,148.00
2022-12-18T12:09:35.014Z,144.00
2022-12-18T12:10:35.156Z,144.00
2022-12-18T12:11:35.414Z,144.00
2022-12-18T12:12:35.670Z,144.00
2022-12-18T12:13:35.928Z,144.00
2022-12-18T12:14:36.190Z,144.00
2022-12-18T12:15:36.476Z,144.00
2022-12-18T12:16:36.640Z,144.00
2022-12-18T12:17:36.800Z,140.00
2022-12-18T12:18:37.011Z,140.00
2022-12-18T12:19:37.270Z,140.00
2022-12-18T12:20:37.414Z,136.00
2022-12-18T12:21:37.690Z,136.00
2022-12-18T12:22:37.831Z,136.00
2022-12-18T12:23:38.111Z,136.00
2022-12-18T12:24:38.362Z,132.00
2022-12-18T12:25:38.631Z,132.00
2022-12-18T12:26:38.771Z,136.00
2022-12-18T12:27:38.961Z,132.00
2022-12-18T12:28:39.524Z,136.00
2022-12-18T12:29:39.483Z,136.00
2022-12-18T12:30:39.612Z,132.00
2022-12-18T12:31:39.955Z,132.00
2022-12-18T12:32:40.042Z,128.00
2022-12-18T12:33:40.653Z,132.00
2022-12-18T12:34:40.545Z,132.00
2022-12-18T12:35:40.833Z,128.00
2022-12-18T12:36:40.987Z,128.00
2022-12-18T12:37:41.175Z,128.00
2022-12-18T12:38:41.315Z,132.00
2022-12-18T12:39:41.603Z,128.00
2022-12-18T12:40:52.626Z,128.00
2022-12-18T12:41:42.966Z,128.00
2022-12-18T12:42:42.156Z,128.00
2022-12-18T12:43:49.588Z,128.00
2022-12-18T12:44:43.654Z,128.00
2022-12-18T12:45:42.888Z,128.00
2022-12-18T12:46:43.057Z,128.00
2022-12-18T12:47:43.556Z,124.00
2022-12-18T12:48:43.902Z,124.00
2022-12-18T12:49:43.828Z,124.00
2022-12-18T12:50:43.959Z,124.00
2022-12-18T12:51:44.137Z,124.00
2022-12-18T12:52:44.381Z,124.00
2022-12-18T12:53:45.260Z,120.00
2022-12-18T12:54:44.870Z,120.00
2022-12-18T12:55:45.050Z,120.00
2022-12-18T12:56:45.299Z,116.00
2022-12-18T12:57:45.539Z,116.00
2022-12-18T12:58:45.681Z,116.00